Terminal Aerodrome Forecast
Issued by NWS

Home | Current Version | Previous Version | Text Only | Print | Product List | Glossary On
Versions: 1 2 3 4 5 6 7 8 9 10 11 12 13 14 15 16
153
FTUS44 KTSA 290724 AAA
TAFFYV
TAF AMD
KFYV 290724Z 2907/3006 00000KT 3SM BR SCT100
     FM291600 14007KT P6SM SCT040
     FM300100 00000KT P6SM BKN250=

USA.gov is the U.S. government's official web portal to all federal, state and local government web resources and services.